Thursday, June 21, 2018, 6:15 AM EDT
Back to Local

KUUU, Newport State Airport

Location: Middletown, RI, United States Lat: 41.533
Local Time: 6:15 AM EDT (10:15 GMT) Lon: -71.283
Time Zone: US/Eastern Elev: 170 ft

Show me the last for .
Show Decoded

2018-06-21 05:53 METAR KUUU 210953Z AUTO 00000KT 6SM -RA BR BKN120 18/18 A2977 RMK AO2 SLP078
                 P0001 T01830178 =
2018-06-21 04:53 METAR KUUU 210853Z AUTO 00000KT 10SM -RA OVC100 18/18 A2976 RMK AO2 SLP075 P0001
                 60001 T01830183 56006 =
2018-06-21 03:53 METAR KUUU 210753Z AUTO VRB03KT 10SM -RA BKN110 18/18 A2976 RMK AO2 RAB15 SLP075
                 P0000 T01830178 =
2018-06-21 02:53 METAR KUUU 210653Z AUTO VRB04KT 10SM CLR 19/17 A2976 RMK AO2 SLP076 T01890172 =
2018-06-21 01:53 METAR KUUU 210553Z AUTO 21004KT 10SM OVC100 19/17 A2978 RMK AO2 SLP081 T01890172
                 10194 20183 58009 =
2018-06-21 00:53 METAR KUUU 210453Z AUTO 20005KT 10SM OVC100 19/18 A2978 RMK AO2 SLP083 T01890178
                 402330128 =
2018-06-20 23:53 METAR KUUU 210353Z AUTO 19003KT 10SM OVC110 18/18 A2980 RMK AO2 SLP089 T01830178
                 =
2018-06-20 22:53 METAR KUUU 210253Z AUTO 20006KT 10SM OVC120 18/18 A2980 RMK AO2 SLP090 T01830178
                 50004 =
2018-06-20 21:53 METAR KUUU 210153Z AUTO 20006KT 10SM SCT120 18/18 A2981 RMK AO2 SLP092 T01830178
                 =
2018-06-20 21:01 METAR KUUU 210101Z AUTO 21005KT 10SM FEW006 19/18 A2980 RMK AO2 T01890178 =
2018-06-20 20:53 METAR KUUU 210053Z AUTO VRB04KT 10SM FEW110 19/18 A2980 RMK AO2 SLP087 T01890178
                 =
2018-06-20 19:53 METAR KUUU 202353Z AUTO 20004KT 10SM CLR 19/18 A2979 RMK AO2 SLP086 T01940178
                 10233 20194 56008 =
2018-06-20 18:53 METAR KUUU 202253Z AUTO 21009KT 10SM CLR 20/18 A2980 RMK AO2 SLP087 T02000178 =
2018-06-20 17:53 METAR KUUU 202153Z AUTO 21007G18KT 10SM CLR 21/17 A2980 RMK AO2 SLP089 T02060172
                 =
2018-06-20 16:53 METAR KUUU 202053Z AUTO 19008G16KT 10SM CLR 22/18 A2982 RMK AO2 SLP095 T02170178
                 56009 =
2018-06-20 15:53 METAR KUUU 201953Z AUTO 20011G15KT 10SM CLR 23/18 A2982 RMK AO2 SLP097 T02280178
                 =
2018-06-20 14:53 METAR KUUU 201853Z AUTO 20010G19KT 10SM CLR 23/17 A2983 RMK AO2 SLP100 T02280172
                 =
2018-06-20 13:53 METAR KUUU 201753Z AUTO 18013KT 10SM CLR 23/17 A2984 RMK AO2 SLP104 T02280172
                 10233 20200 58015 =
2018-06-20 12:53 METAR KUUU 201653Z AUTO 19008G15KT 10SM CLR 23/18 A2987 RMK AO2 SLP113 T02280183
                 =
2018-06-20 11:53 METAR KUUU 201553Z AUTO 18007KT 10SM CLR 22/17 A2988 RMK AO2 SLP117 T02170167 =
2018-06-20 10:53 METAR KUUU 201453Z AUTO 18009KT 10SM CLR 22/16 A2989 RMK AO2 SLP120 T02220161
                 56011 =
2018-06-20 09:53 METAR KUUU 201353Z AUTO VRB03KT 10SM CLR 22/14 A2990 RMK AO2 SLP121 T02170144 =
2018-06-20 08:53 METAR KUUU 201253Z AUTO 00000KT 10SM CLR 21/13 A2991 RMK AO2 SLP126 T02110133 =
2018-06-20 07:53 METAR KUUU 201153Z AUTO 00000KT 10SM CLR 20/12 A2992 RMK AO2 SLP131 T02000117
                 10200 20128 53013 =
2018-06-20 06:53 METAR KUUU 201053Z AUTO 36003KT 10SM CLR 18/12 A2991 RMK AO2 SLP126 T01830117 =

Support USWX by starting your Amazon purchase here.